Airport Name : Roi Et

Other Name : Roi Et

ICAO : VTUV

IATA : ROI

FAA :

Latitude : 16.116761

Longitude : 103.773797

Country : Thailand

Local Date and Time : 1/22/2018 1:31:00 AM

 

TAF (Terminal Aerodrome Forecast)

TAF VTUV 211700Z 2118/2218 04004KT 8000 FEW025

 

METAR (METeorological Aerodrome Report)